createdAt,value
2022-10-20T00:20:25.629Z,99141.56
2022-10-20T00:22:52.314Z,99145.91
2022-10-20T00:25:18.903Z,99162.53
2022-10-20T00:27:45.510Z,99147.06
2022-10-20T00:30:12.150Z,99174.75
2022-10-20T00:32:38.993Z,99186.94
2022-10-20T00:35:06.386Z,99168.97
2022-10-20T00:37:33.086Z,99145.03
2022-10-20T00:40:00.498Z,99161.44
2022-10-20T00:42:27.113Z,99141.72
2022-10-20T00:44:59.782Z,99162.19
2022-10-20T00:47:37.173Z,99160.50
2022-10-20T00:50:13.157Z,99133.47
2022-10-20T00:52:40.458Z,99157.34
2022-10-20T00:55:08.743Z,99159.16
2022-10-20T00:57:36.134Z,99172.69
2022-10-20T01:00:03.581Z,99166.59
2022-10-20T01:02:30.270Z,99150.44
2022-10-20T01:04:56.898Z,99153.84
2022-10-20T01:07:23.631Z,99172.53
2022-10-20T01:09:50.862Z,99178.56
2022-10-20T01:12:40.905Z,99175.03
2022-10-20T01:18:29.383Z,99175.81
2022-10-20T01:21:37.308Z,99181.97
2022-10-20T01:27:20.930Z,99173.53
2022-10-20T01:29:55.078Z,99158.50
2022-10-20T01:32:32.421Z,99180.78
2022-10-20T01:35:05.464Z,99177.28
2022-10-20T01:37:48.856Z,99185.97
2022-10-20T01:40:15.958Z,99184.41
2022-10-20T01:42:44.774Z,99170.69
2022-10-20T01:45:13.776Z,99181.88
2022-10-20T01:47:40.738Z,99187.81
2022-10-20T01:50:08.451Z,99189.53
2022-10-20T01:52:35.477Z,99194.56
2022-10-20T01:55:02.317Z,99201.34
2022-10-20T01:57:31.771Z,99194.31
2022-10-20T01:59:58.383Z,99209.88
2022-10-20T02:02:27.860Z,99209.78
2022-10-20T02:05:12.866Z,99212.34
2022-10-20T02:07:39.808Z,99197.63
2022-10-20T02:10:15.871Z,99192.66
2022-10-20T02:12:45.630Z,99193.34
2022-10-20T02:15:16.840Z,99191.78
2022-10-20T02:17:45.703Z,99204.53
2022-10-20T02:20:12.762Z,99209.63
2022-10-20T02:22:40.210Z,99204.38
2022-10-20T02:25:11.385Z,99202.72
2022-10-20T02:27:40.211Z,99216.63
2022-10-20T02:30:07.297Z,99213.94
2022-10-20T02:32:36.131Z,99213.97
2022-10-20T02:35:09.488Z,99213.97
2022-10-20T02:37:36.448Z,99226.06
2022-10-20T02:40:04.498Z,99221.72
2022-10-20T02:42:31.363Z,99213.25
2022-10-20T02:44:57.953Z,99227.78
2022-10-20T02:47:24.716Z,99238.09
2022-10-20T02:49:51.519Z,99208.09
2022-10-20T02:52:18.208Z,99219.22
2022-10-20T02:54:44.809Z,99239.94
2022-10-20T02:57:11.593Z,99231.31
2022-10-20T02:59:38.284Z,99223.47
2022-10-20T03:02:04.938Z,99227.03
2022-10-20T03:04:31.600Z,99230.53
2022-10-20T03:06:58.322Z,99238.31
2022-10-20T03:09:25.093Z,99236.69
2022-10-20T03:11:51.794Z,99244.47
2022-10-20T03:14:18.430Z,99265.16
2022-10-20T03:16:45.052Z,99214.34
2022-10-20T03:19:12.085Z,99236.69
2022-10-20T03:21:39.183Z,99247.00
2022-10-20T03:24:06.077Z,99236.69
2022-10-20T03:26:32.902Z,99233.25
2022-10-20T03:28:59.579Z,99199.28
2022-10-20T03:31:26.436Z,99236.03
2022-10-20T03:33:53.089Z,99238.63
2022-10-20T03:36:19.737Z,99241.09
2022-10-20T03:38:46.350Z,99226.63
2022-10-20T03:41:12.992Z,99245.41
2022-10-20T03:43:40.438Z,99232.72
2022-10-20T03:46:09.100Z,99251.66
2022-10-20T03:48:36.208Z,99232.63
2022-10-20T03:51:04.033Z,99253.59
2022-10-20T03:53:30.906Z,99247.28
2022-10-20T03:55:57.618Z,99225.19
2022-10-20T03:58:24.314Z,99244.88
2022-10-20T04:00:51.145Z,99247.28
2022-10-20T04:03:17.810Z,99240.50
2022-10-20T04:05:47.524Z,99227.66
2022-10-20T04:08:17.276Z,99227.13
2022-10-20T04:10:43.975Z,99219.22
2022-10-20T04:13:10.630Z,99241.50
2022-10-20T04:15:37.243Z,99253.47
2022-10-20T04:18:03.966Z,99234.56
2022-10-20T04:20:30.594Z,99252.72
2022-10-20T04:22:57.214Z,99243.25
2022-10-20T04:25:23.891Z,99262.13
2022-10-20T04:27:50.539Z,99253.69
2022-10-20T04:30:17.310Z,99239.28
2022-10-20T04:32:43.980Z,99254.53
2022-10-20T04:35:10.721Z,99246.78
2022-10-20T04:37:37.684Z,99246.03
2022-10-20T04:40:05.016Z,99239.22
2022-10-20T04:42:32.269Z,99253.75
2022-10-20T04:44:58.964Z,99257.28
2022-10-20T04:47:25.663Z,99268.31
2022-10-20T04:49:52.297Z,99272.53
2022-10-20T04:52:20.822Z,99269.13
2022-10-20T04:54:47.692Z,99273.38
2022-10-20T04:57:14.387Z,99268.97
2022-10-20T04:59:41.037Z,99279.22
2022-10-20T05:02:08.419Z,99280.91
2022-10-20T05:04:35.421Z,99281.69
2022-10-20T05:07:02.025Z,99295.69
2022-10-20T05:09:28.722Z,99267.09
2022-10-20T05:11:55.445Z,99288.59
2022-10-20T05:14:22.121Z,99293.69
2022-10-20T05:16:48.782Z,99302.47
2022-10-20T05:19:15.912Z,99303.22
2022-10-20T05:24:16.856Z,99300.78
2022-10-20T05:26:46.790Z,99289.59
2022-10-20T05:29:13.795Z,99312.09
2022-10-20T05:31:42.434Z,99295.69
2022-10-20T05:34:10.333Z,99339.78
2022-10-20T05:36:37.407Z,99301.97
2022-10-20T05:39:04.229Z,99308.19
2022-10-20T05:41:36.239Z,99321.81
2022-10-20T05:44:08.787Z,99317.44
2022-10-20T05:46:38.506Z,99337.34
2022-10-20T05:49:05.291Z,99346.78
2022-10-20T05:51:35.193Z,99348.50
2022-10-20T05:54:02.293Z,99337.59
2022-10-20T05:56:30.854Z,99350.50
2022-10-20T05:58:58.218Z,99359.97
2022-10-20T06:01:26.985Z,99348.91
2022-10-20T06:03:56.098Z,99368.75
2022-10-20T06:06:28.032Z,99358.66
2022-10-20T06:08:55.688Z,99365.28
2022-10-20T06:11:23.213Z,99362.53
2022-10-20T06:13:52.850Z,99376.25
2022-10-20T06:16:24.862Z,99371.28
2022-10-20T06:18:51.815Z,99348.88
2022-10-20T06:21:21.117Z,99365.03
2022-10-20T06:23:47.960Z,99359.06
2022-10-20T06:26:21.201Z,99357.38
2022-10-20T06:28:51.612Z,99365.09
2022-10-20T06:31:23.303Z,99371.78
2022-10-20T06:33:51.090Z,99382.06
2022-10-20T06:36:18.891Z,99367.53
2022-10-20T06:38:46.295Z,99387.16
2022-10-20T06:41:15.591Z,99385.19
2022-10-20T06:43:51.907Z,99387.84
2022-10-20T06:46:18.802Z,99403.34
2022-10-20T06:48:45.993Z,99404.16
2022-10-20T06:51:18.931Z,99397.25
2022-10-20T06:53:46.957Z,99395.56
2022-10-20T06:56:33.617Z,99385.28
2022-10-20T06:59:01.286Z,99395.38
2022-10-20T07:01:30.590Z,99390.34
2022-10-20T07:03:59.570Z,99369.16
2022-10-20T07:06:29.015Z,99379.41
2022-10-20T07:08:56.798Z,99390.56
2022-10-20T07:11:28.458Z,99402.50
2022-10-20T07:13:55.831Z,99390.44
2022-10-20T07:16:24.688Z,99402.28
2022-10-20T07:18:52.137Z,99430.84
2022-10-20T07:21:21.511Z,99390.56
2022-10-20T07:23:48.978Z,99417.81
2022-10-20T07:26:18.759Z,99426.28
2022-10-20T07:28:55.402Z,99419.44
2022-10-20T07:31:24.239Z,99393.63
2022-10-20T07:34:13.294Z,99415.09
2022-10-20T07:36:39.043Z,99403.19
2022-10-20T07:39:06.500Z,99439.25
2022-10-20T07:41:33.826Z,99427.19
2022-10-20T07:44:00.480Z,99426.38
2022-10-20T07:46:27.179Z,99442.56
2022-10-20T07:48:53.953Z,99423.00
2022-10-20T07:51:29.163Z,99439.22
2022-10-20T07:54:00.603Z,99441.69
2022-10-20T07:56:29.918Z,99428.97
2022-10-20T07:58:56.905Z,99423.75
2022-10-20T08:01:23.741Z,99438.91
2022-10-20T08:03:50.651Z,99441.75
2022-10-20T08:06:17.753Z,99449.28
2022-10-20T08:08:44.512Z,99452.59
2022-10-20T08:11:11.610Z,99463.88
2022-10-20T08:13:40.950Z,99446.66
2022-10-20T08:16:15.078Z,99458.69
2022-10-20T08:18:51.877Z,99453.41
2022-10-20T08:21:20.323Z,99462.03
2022-10-20T08:23:48.151Z,99457.72
2022-10-20T08:26:20.364Z,99468.03
2022-10-20T08:28:48.266Z,99461.13
2022-10-20T08:31:15.130Z,99461.00
2022-10-20T08:33:41.907Z,99439.88
2022-10-20T08:36:11.379Z,99487.72
2022-10-20T08:38:38.959Z,99497.25
2022-10-20T08:41:16.542Z,99469.56
2022-10-20T08:43:43.353Z,99492.09
2022-10-20T08:46:14.610Z,99502.47
2022-10-20T08:48:42.314Z,99485.19
2022-10-20T08:51:17.855Z,99481.03
2022-10-20T08:53:44.774Z,99496.34
2022-10-20T08:56:13.650Z,99480.06
2022-10-20T08:58:44.982Z,99488.41
2022-10-20T09:01:20.444Z,99504.91
2022-10-20T09:03:51.303Z,99512.47
2022-10-20T09:06:18.098Z,99513.22
2022-10-20T09:08:45.156Z,99500.22
2022-10-20T09:11:19.561Z,99509.78
2022-10-20T09:16:58.603Z,99491.19
2022-10-20T09:19:25.239Z,99511.97
2022-10-20T09:21:54.034Z,99520.63
2022-10-20T09:24:22.188Z,99498.13
2022-10-20T09:26:58.640Z,99518.81
2022-10-20T09:29:37.907Z,99502.50
2022-10-20T09:32:45.076Z,99503.97
2022-10-20T09:35:22.557Z,99514.97
2022-10-20T09:38:11.084Z,99525.28
2022-10-20T09:40:55.200Z,99501.47
2022-10-20T09:43:21.886Z,99516.06
2022-10-20T09:46:01.014Z,99526.41
2022-10-20T09:48:32.010Z,99491.75
2022-10-20T09:50:59.204Z,99500.53
2022-10-20T09:53:29.993Z,99512.38
2022-10-20T09:55:56.815Z,99521.69
2022-10-20T09:58:25.059Z,99537.22
2022-10-20T10:00:57.667Z,99538.03
2022-10-20T10:03:25.167Z,99541.56
2022-10-20T10:05:59.360Z,99563.19
2022-10-20T10:08:29.796Z,99543.16
2022-10-20T10:11:00.771Z,99541.44
2022-10-20T10:13:29.820Z,99508.84
2022-10-20T10:16:16.897Z,99536.94
2022-10-20T10:18:48.469Z,99539.44
2022-10-20T10:21:17.667Z,99559.28
2022-10-20T10:24:00.736Z,99565.28
2022-10-20T10:26:42.788Z,99551.41
2022-10-20T10:29:36.249Z,99558.81
2022-10-20T10:32:25.207Z,99546.16
2022-10-20T10:35:16.388Z,99550.03
2022-10-20T10:37:56.030Z,99559.94
2022-10-20T10:40:37.839Z,99540.78
2022-10-20T10:43:31.506Z,99566.50
2022-10-20T10:46:10.274Z,99556.78
2022-10-20T10:49:27.023Z,99508.75
2022-10-20T10:51:53.641Z,99556.34
2022-10-20T10:54:49.845Z,99542.25
2022-10-20T10:57:28.621Z,99539.44
2022-10-20T10:59:57.021Z,99543.72
2022-10-20T11:02:52.620Z,99516.88
2022-10-20T11:05:34.417Z,99532.03
2022-10-20T11:08:26.134Z,99530.22
2022-10-20T11:11:10.618Z,99515.84
2022-10-20T11:13:55.970Z,99536.72
2022-10-20T11:16:33.843Z,99541.38
2022-10-20T11:19:28.044Z,99561.44
2022-10-20T11:22:21.111Z,99573.69
2022-10-20T11:25:03.168Z,99552.41
2022-10-20T11:27:34.799Z,99553.34
2022-10-20T11:30:08.634Z,99560.03
2022-10-20T11:32:43.005Z,99578.88
2022-10-20T11:35:35.171Z,99555.44
2022-10-20T11:38:13.857Z,99583.75
2022-10-20T11:40:45.267Z,99575.06
2022-10-20T11:43:50.957Z,99528.56
2022-10-20T11:46:28.804Z,99581.78
2022-10-20T11:48:59.125Z,99571.56
2022-10-20T11:51:31.545Z,99583.38
2022-10-20T11:54:19.856Z,99588.81
2022-10-20T11:57:20.663Z,99609.00
2022-10-20T11:59:48.221Z,99604.09
2022-10-20T12:02:36.656Z,99593.88
2022-10-20T12:08:58.528Z,99621.97
2022-10-20T12:11:39.437Z,99614.41
2022-10-20T12:14:15.239Z,99638.38
2022-10-20T12:17:05.145Z,99647.31
2022-10-20T12:19:35.828Z,99652.44
2022-10-20T12:22:04.446Z,99652.34
2022-10-20T12:24:39.208Z,99655.75
2022-10-20T12:27:08.981Z,99659.97
2022-10-20T12:29:35.663Z,99683.25
2022-10-20T12:32:36.727Z,99667.34
2022-10-20T12:35:23.443Z,99673.28
2022-10-20T12:37:59.272Z,99676.34
2022-10-20T12:40:31.376Z,99672.97
2022-10-20T12:42:58.214Z,99657.34
2022-10-20T12:45:37.865Z,99667.28
2022-10-20T12:48:07.425Z,99670.97
2022-10-20T12:50:38.051Z,99670.03
2022-10-20T12:53:16.990Z,99688.13
2022-10-20T12:56:14.488Z,99680.38
2022-10-20T12:59:08.881Z,99697.69
2022-10-20T13:02:17.588Z,99700.06
2022-10-20T13:05:15.005Z,99709.34
2022-10-20T13:08:01.423Z,99714.44
2022-10-20T13:10:30.886Z,99716.19
2022-10-20T13:13:04.068Z,99712.63
2022-10-20T13:15:43.404Z,99722.44
2022-10-20T13:18:12.943Z,99739.84
2022-10-20T13:20:46.874Z,99746.66
2022-10-20T13:23:15.652Z,99745.00
2022-10-20T13:25:48.831Z,99754.28
2022-10-20T13:28:28.948Z,99740.75
2022-10-20T13:30:55.635Z,99751.22
2022-10-20T13:33:45.024Z,99759.94
2022-10-20T13:36:57.511Z,99765.03
2022-10-20T13:39:44.358Z,99760.75
2022-10-20T13:42:15.011Z,99761.56
2022-10-20T13:44:44.677Z,99784.09
2022-10-20T13:47:34.983Z,99761.59
2022-10-20T13:50:06.221Z,99771.97
2022-10-20T13:52:37.571Z,99779.66
2022-10-20T13:55:05.524Z,99787.47
2022-10-20T13:57:33.906Z,99780.66
2022-10-20T14:00:03.162Z,99783.13
2022-10-20T14:02:32.782Z,99793.53
2022-10-20T14:05:06.529Z,99793.63
2022-10-20T14:07:43.861Z,99797.84
2022-10-20T14:10:37.697Z,99788.38
2022-10-20T14:13:08.141Z,99802.16
2022-10-20T14:15:35.884Z,99805.72
2022-10-20T14:18:08.103Z,99816.19
2022-10-20T14:20:39.350Z,99822.28
2022-10-20T14:23:06.558Z,99802.88
2022-10-20T14:25:33.606Z,99823.50
2022-10-20T14:28:03.950Z,99822.53
2022-10-20T14:30:38.687Z,99835.47
2022-10-20T14:33:13.858Z,99832.22
2022-10-20T14:35:43.634Z,99837.44
2022-10-20T14:38:16.266Z,99856.34
2022-10-20T14:40:52.870Z,99857.25
2022-10-20T14:43:39.692Z,99852.06
2022-10-20T14:46:10.487Z,99884.31
2022-10-20T14:48:38.555Z,99862.63
2022-10-20T14:51:26.895Z,99869.50
2022-10-20T14:54:31.468Z,99863.44
2022-10-20T14:57:00.301Z,99884.19
2022-10-20T14:59:31.372Z,99891.09
2022-10-20T15:02:12.260Z,99874.69
2022-10-20T15:04:48.246Z,99877.53
2022-10-20T15:07:22.843Z,99882.53
2022-10-20T15:10:00.334Z,99891.13
2022-10-20T15:12:35.973Z,99882.53
2022-10-20T15:15:12.129Z,99904.25
2022-10-20T15:17:50.324Z,99900.72
2022-10-20T15:20:33.465Z,99903.34
2022-10-20T15:23:08.358Z,99903.31
2022-10-20T15:25:48.820Z,99906.72
2022-10-20T15:28:23.527Z,99907.69
2022-10-20T15:30:50.274Z,99905.16
2022-10-20T15:33:16.915Z,99888.16
2022-10-20T15:35:47.746Z,99909.41
2022-10-20T15:38:15.356Z,99918.00
2022-10-20T15:40:42.398Z,99922.44
2022-10-20T15:43:13.293Z,99930.91
2022-10-20T15:45:43.322Z,99930.16
2022-10-20T15:48:10.257Z,99930.19
2022-10-20T15:50:38.130Z,99932.81
2022-10-20T15:53:04.963Z,99919.97
2022-10-20T15:55:33.463Z,99912.28
2022-10-20T15:58:00.176Z,99939.66
2022-10-20T16:00:28.482Z,99947.41
2022-10-20T16:02:55.357Z,99924.25
2022-10-20T16:05:23.465Z,99969.09
2022-10-20T16:07:53.101Z,99933.72
2022-10-20T16:10:24.044Z,99945.91
2022-10-20T16:12:50.684Z,99951.81
2022-10-20T16:15:18.109Z,99957.03
2022-10-20T16:17:45.843Z,99967.25
2022-10-20T16:20:13.052Z,99958.78
2022-10-20T16:22:40.088Z,99967.50
2022-10-20T16:25:07.207Z,99979.56
2022-10-20T16:27:34.393Z,99962.22
2022-10-20T16:30:01.280Z,99968.19
2022-10-20T16:32:32.824Z,99989.78
2022-10-20T16:35:03.085Z,99972.69
2022-10-20T16:37:31.254Z,99974.28
2022-10-20T16:39:58.549Z,99971.84
2022-10-20T16:42:26.381Z,99996.91
2022-10-20T16:44:53.022Z,99962.38
2022-10-20T16:47:19.765Z,99983.97
2022-10-20T16:49:46.442Z,99997.03
2022-10-20T16:52:13.102Z,99996.91
2022-10-20T16:57:12.788Z,100000.34
2022-10-20T16:59:39.838Z,100009.88
2022-10-20T17:02:06.645Z,100022.88
2022-10-20T17:04:33.342Z,100003.16
2022-10-20T17:06:59.970Z,100024.63
2022-10-20T17:09:26.824Z,100026.59
2022-10-20T17:11:53.429Z,100019.63
2022-10-20T17:14:20.125Z,99999.94
2022-10-20T17:16:47.436Z,100010.25
2022-10-20T17:19:14.498Z,100029.88
2022-10-20T17:21:41.313Z,100028.16
2022-10-20T17:24:12.975Z,99982.88
2022-10-20T17:26:40.667Z,100033.53
2022-10-20T17:29:09.384Z,100036.09
2022-10-20T17:31:37.264Z,100037.94
2022-10-20T17:34:04.725Z,100030.22
2022-10-20T17:36:31.559Z,100033.78
2022-10-20T17:39:12.178Z,100042.53
2022-10-20T17:41:44.902Z,100054.66
2022-10-20T17:44:14.811Z,100053.78
2022-10-20T17:46:43.528Z,100051.25
2022-10-20T17:49:10.282Z,100052.16
2022-10-20T17:51:37.191Z,100052.25
2022-10-20T17:54:07.241Z,100040.25
2022-10-20T17:56:36.089Z,100054.00
2022-10-20T17:59:05.053Z,100028.34
2022-10-20T18:01:40.702Z,100054.94
2022-10-20T18:04:13.193Z,100054.06
2022-10-20T18:06:40.223Z,100048.16
2022-10-20T18:09:11.171Z,100047.28
2022-10-20T18:11:39.414Z,100035.34
2022-10-20T18:14:06.582Z,100047.28
2022-10-20T18:16:35.040Z,100060.34
2022-10-20T18:19:02.084Z,100054.38
2022-10-20T18:21:29.875Z,100057.84
2022-10-20T18:23:58.876Z,100065.47
2022-10-20T18:26:26.023Z,100062.13
2022-10-20T18:28:52.932Z,100062.91
2022-10-20T18:31:27.743Z,100075.78
2022-10-20T18:34:04.209Z,100052.50
2022-10-20T18:36:34.112Z,100068.75
2022-10-20T18:39:17.330Z,100067.09
2022-10-20T18:41:44.319Z,100083.41
2022-10-20T18:44:16.799Z,100074.75
2022-10-20T18:46:43.725Z,100076.56
2022-10-20T18:49:13.272Z,100037.06
2022-10-20T18:51:40.254Z,100073.91
2022-10-20T18:54:08.549Z,100067.97
2022-10-20T18:56:36.056Z,100092.81
2022-10-20T18:59:05.434Z,100097.19
2022-10-20T19:01:35.359Z,100098.00
2022-10-20T19:04:03.528Z,100103.19
2022-10-20T19:06:36.723Z,100099.75
2022-10-20T19:09:14.393Z,100097.94
2022-10-20T19:11:41.802Z,100104.03
2022-10-20T19:14:12.372Z,100104.97
2022-10-20T19:16:39.930Z,100098.19
2022-10-20T19:19:08.114Z,100084.50
2022-10-20T19:21:35.627Z,100086.19
2022-10-20T19:24:07.439Z,100108.53
2022-10-20T19:26:40.376Z,100108.53
2022-10-20T19:29:10.275Z,100094.06
2022-10-20T19:31:46.014Z,100126.81
2022-10-20T19:34:19.109Z,100129.34
2022-10-20T19:36:49.023Z,100097.47
2022-10-20T19:39:17.880Z,100108.72
2022-10-20T19:41:45.523Z,100119.00
2022-10-20T19:44:12.780Z,100110.47
2022-10-20T19:46:40.670Z,100125.97
2022-10-20T19:51:42.150Z,100109.03
2022-10-20T19:54:10.025Z,100119.38
2022-10-20T19:56:37.618Z,100129.72
2022-10-20T19:59:05.155Z,100125.38
2022-10-20T20:01:32.360Z,100090.25
2022-10-20T20:03:59.924Z,100135.00
2022-10-20T20:06:29.021Z,100076.69
2022-10-20T20:09:04.762Z,100043.22
2022-10-20T20:11:41.459Z,100129.09
2022-10-20T20:14:14.367Z,100092.22
2022-10-20T20:16:41.343Z,100137.75
2022-10-20T20:19:08.395Z,100119.69
2022-10-20T20:21:35.535Z,100135.19
2022-10-20T20:24:03.655Z,100142.03
2022-10-20T20:26:32.655Z,100138.66
2022-10-20T20:28:59.881Z,100130.97
2022-10-20T20:31:27.315Z,100148.22
2022-10-20T20:33:55.092Z,100119.00
2022-10-20T20:36:21.812Z,100154.28
2022-10-20T20:38:49.296Z,100141.38
2022-10-20T20:41:18.448Z,100138.84
2022-10-20T20:43:45.426Z,100156.09
2022-10-20T20:46:17.316Z,100151.03
2022-10-20T20:48:44.129Z,100158.75
2022-10-20T20:51:11.931Z,100157.84
2022-10-20T20:53:39.719Z,100157.91
2022-10-20T20:56:19.612Z,100163.97
2022-10-20T20:58:49.159Z,100160.50
2022-10-20T21:01:22.768Z,100159.66
2022-10-20T21:03:54.408Z,100159.69
2022-10-20T21:06:25.687Z,100158.81
2022-10-20T21:09:01.173Z,100153.72
2022-10-20T21:11:28.016Z,100158.91
2022-10-20T21:13:56.190Z,100160.66
2022-10-20T21:16:25.505Z,100160.66
2022-10-20T21:18:54.486Z,100151.25
2022-10-20T21:21:47.192Z,100169.34
2022-10-20T21:24:13.961Z,100166.75
2022-10-20T21:26:40.717Z,100173.69
2022-10-20T21:29:07.575Z,100170.28
2022-10-20T21:31:34.288Z,100160.81
2022-10-20T21:34:03.449Z,100165.13
2022-10-20T21:36:32.540Z,100162.66
2022-10-20T21:38:59.791Z,100179.94
2022-10-20T21:41:29.352Z,100174.69
2022-10-20T21:43:58.142Z,100168.72
2022-10-20T21:46:32.697Z,100174.69
2022-10-20T21:49:01.859Z,100173.78
2022-10-20T21:51:39.681Z,100182.53
2022-10-20T21:54:08.536Z,100179.13
2022-10-20T21:56:40.201Z,100186.03
2022-10-20T21:59:08.187Z,100184.44
2022-10-20T22:01:35.036Z,100192.13
2022-10-20T22:04:01.951Z,100195.59
2022-10-20T22:06:28.715Z,100184.44
2022-10-20T22:08:57.590Z,100192.19
2022-10-20T22:11:24.291Z,100201.69
2022-10-20T22:13:51.229Z,100198.22
2022-10-20T22:16:20.799Z,100184.59
2022-10-20T22:18:47.691Z,100195.78
2022-10-20T22:21:17.001Z,100203.53
2022-10-20T22:23:44.404Z,100205.22
2022-10-20T22:26:11.631Z,100202.69
2022-10-20T22:28:38.681Z,100188.97
2022-10-20T22:31:06.752Z,100207.91
2022-10-20T22:33:33.524Z,100210.53
2022-10-20T22:36:00.137Z,100216.59
2022-10-20T22:38:26.872Z,100215.72
2022-10-20T22:40:58.671Z,100219.97
2022-10-20T22:43:25.660Z,100220.00
2022-10-20T22:45:52.263Z,100209.69
2022-10-20T22:48:18.881Z,100218.34
2022-10-20T22:50:45.651Z,100206.34
2022-10-20T22:53:12.373Z,100223.53
2022-10-20T22:55:39.025Z,100220.16
2022-10-20T22:58:05.622Z,100217.56
2022-10-20T23:00:32.551Z,100218.41
2022-10-20T23:02:59.356Z,100228.78
2022-10-20T23:05:26.123Z,100238.28
2022-10-20T23:07:52.822Z,100219.38
2022-10-20T23:10:19.664Z,100240.03
2022-10-20T23:12:46.328Z,100242.63
2022-10-20T23:15:12.958Z,100236.63
2022-10-20T23:17:39.965Z,100243.50
2022-10-20T23:20:07.008Z,100240.91
2022-10-20T23:22:33.692Z,100236.63
2022-10-20T23:25:01.603Z,100223.72
2022-10-20T23:27:28.365Z,100220.28
2022-10-20T23:29:55.018Z,100246.09
2022-10-20T23:32:21.695Z,100229.81
2022-10-20T23:34:48.279Z,100245.28
2022-10-20T23:37:14.950Z,100247.03
2022-10-20T23:39:41.545Z,100257.41
2022-10-20T23:42:08.241Z,100245.38
2022-10-20T23:44:34.919Z,100249.69
2022-10-20T23:47:01.520Z,100247.13
2022-10-20T23:49:28.193Z,100241.13
2022-10-20T23:51:54.845Z,100254.91
2022-10-20T23:54:21.646Z,100252.31
2022-10-20T23:56:48.305Z,100248.88
2022-10-20T23:59:15.066Z,100249.75
